createdAt,value
2023-05-09T00:01:32.648Z,47.13
2023-05-09T00:04:00.281Z,45.40
2023-05-09T00:06:27.800Z,45.03
2023-05-09T00:08:55.797Z,44.67
2023-05-09T00:11:23.011Z,44.33
2023-05-09T00:13:52.024Z,43.70
2023-05-09T00:16:20.710Z,43.50
2023-05-09T00:18:47.809Z,43.97
2023-05-09T00:21:14.825Z,43.78
2023-05-09T00:23:41.782Z,43.33
2023-05-09T00:26:10.815Z,43.15
2023-05-09T00:28:40.288Z,41.70
2023-05-09T00:31:07.413Z,41.40
2023-05-09T00:33:34.552Z,41.90
2023-05-09T00:36:01.824Z,41.05
2023-05-09T00:38:29.178Z,40.53
2023-05-09T00:40:56.505Z,42.00
2023-05-09T00:43:23.599Z,41.50
2023-05-09T00:45:51.076Z,41.33
2023-05-09T00:48:18.615Z,40.28
2023-05-09T00:50:47.139Z,40.30
2023-05-09T00:53:14.991Z,41.92
2023-05-09T00:55:42.277Z,39.40
2023-05-09T00:58:09.494Z,39.08
2023-05-09T01:00:36.740Z,40.03
2023-05-09T01:03:04.983Z,38.45
2023-05-09T01:06:02.219Z,38.17
2023-05-09T01:08:45.498Z,39.22
2023-05-09T01:11:25.206Z,37.63
2023-05-09T01:14:13.725Z,37.05
2023-05-09T01:16:51.074Z,38.13
2023-05-09T01:20:13.121Z,37.75
2023-05-09T01:22:54.887Z,37.97
2023-05-09T01:25:38.273Z,38.80
2023-05-09T01:28:19.453Z,38.95
2023-05-09T01:30:48.934Z,40.00
2023-05-09T01:33:20.463Z,39.60
2023-05-09T01:36:05.793Z,39.22
2023-05-09T01:38:33.172Z,40.13
2023-05-09T01:41:05.029Z,41.30
2023-05-09T01:43:34.583Z,40.53
2023-05-09T01:46:05.317Z,39.53
2023-05-09T01:48:36.270Z,41.35
2023-05-09T01:51:05.734Z,40.10
2023-05-09T01:53:34.624Z,38.33
2023-05-09T01:56:04.740Z,41.30
2023-05-09T01:58:33.787Z,40.63
2023-05-09T02:01:02.404Z,41.75
2023-05-09T02:03:30.415Z,42.35
2023-05-09T02:05:57.981Z,42.15
2023-05-09T02:08:26.732Z,44.70
2023-05-09T02:10:53.963Z,45.03
2023-05-09T02:13:21.180Z,44.22
2023-05-09T02:15:48.939Z,45.00
2023-05-09T02:18:17.359Z,42.15
2023-05-09T02:20:44.625Z,42.92
2023-05-09T02:23:12.165Z,43.33
2023-05-09T02:25:41.242Z,43.00
2023-05-09T02:28:10.241Z,43.95
2023-05-09T02:30:43.312Z,45.05
2023-05-09T02:33:12.792Z,43.97
2023-05-09T02:35:44.982Z,43.83
2023-05-09T02:38:14.071Z,45.13
2023-05-09T02:40:44.264Z,46.05
2023-05-09T02:43:11.616Z,46.40
2023-05-09T02:45:39.003Z,47.85
2023-05-09T02:48:08.714Z,46.75
2023-05-09T02:50:38.323Z,47.03
2023-05-09T02:53:06.230Z,48.00
2023-05-09T02:55:33.404Z,46.53
2023-05-09T02:58:12.849Z,49.33
2023-05-09T03:00:41.810Z,48.25
2023-05-09T03:03:09.342Z,45.92
2023-05-09T03:05:36.547Z,47.85
2023-05-09T03:08:04.075Z,48.38
2023-05-09T03:10:34.969Z,50.10
2023-05-09T03:13:02.898Z,48.83
2023-05-09T03:15:30.676Z,51.70
2023-05-09T03:17:59.848Z,50.42
2023-05-09T03:20:27.812Z,53.35
2023-05-09T03:22:55.210Z,54.10
2023-05-09T03:25:22.645Z,54.22
2023-05-09T03:27:49.645Z,53.70
2023-05-09T03:30:17.285Z,55.08
2023-05-09T03:32:46.539Z,54.53
2023-05-09T03:35:14.043Z,55.30
2023-05-09T03:37:41.345Z,53.42
2023-05-09T03:40:09.627Z,53.95
2023-05-09T03:42:43.883Z,51.17
2023-05-09T03:45:11.717Z,51.97
2023-05-09T03:47:38.940Z,50.35
2023-05-09T03:50:07.279Z,49.47
2023-05-09T03:52:37.215Z,50.00
2023-05-09T03:55:05.906Z,51.42
2023-05-09T03:57:35.677Z,50.97
2023-05-09T04:00:06.151Z,50.22
2023-05-09T04:02:42.397Z,50.67
2023-05-09T04:05:17.457Z,48.00
2023-05-09T04:07:45.478Z,47.42
2023-05-09T04:10:12.819Z,47.30
2023-05-09T04:12:40.101Z,46.05
2023-05-09T04:15:08.472Z,46.35
2023-05-09T04:17:36.185Z,46.33
2023-05-09T04:20:03.746Z,43.70
2023-05-09T04:22:31.124Z,44.58
2023-05-09T04:24:58.225Z,44.88
2023-05-09T04:27:25.740Z,43.85
2023-05-09T04:29:53.776Z,44.13
2023-05-09T04:32:22.515Z,43.53
2023-05-09T04:34:50.358Z,43.22
2023-05-09T04:37:21.452Z,42.55
2023-05-09T04:39:48.666Z,42.72
2023-05-09T04:42:21.381Z,41.67
2023-05-09T04:44:49.398Z,40.15
2023-05-09T04:47:16.630Z,41.38
2023-05-09T04:49:43.710Z,40.08
2023-05-09T04:52:10.798Z,38.40
2023-05-09T04:54:37.830Z,38.00
2023-05-09T04:57:17.128Z,37.60
2023-05-09T04:59:48.764Z,35.05
2023-05-09T05:02:16.068Z,37.78
2023-05-09T05:04:43.684Z,37.58
2023-05-09T05:07:10.781Z,37.80
2023-05-09T05:09:38.385Z,39.65
2023-05-09T05:12:09.306Z,39.25
2023-05-09T05:14:37.512Z,41.97
2023-05-09T05:17:07.961Z,38.50
2023-05-09T05:19:35.280Z,36.72
2023-05-09T05:22:04.346Z,36.15
2023-05-09T05:24:32.521Z,32.88
2023-05-09T05:26:59.569Z,31.63
2023-05-09T05:29:26.745Z,31.38
2023-05-09T05:31:53.985Z,29.90
2023-05-09T05:34:21.732Z,29.02
2023-05-09T05:36:49.108Z,27.85
2023-05-09T05:39:16.335Z,28.05
2023-05-09T05:41:43.424Z,27.75
2023-05-09T05:44:11.268Z,26.20
2023-05-09T05:46:39.101Z,25.63
2023-05-09T05:49:06.704Z,25.70
2023-05-09T05:51:34.585Z,24.55
2023-05-09T05:54:03.063Z,24.30
2023-05-09T05:56:30.751Z,25.27
2023-05-09T05:58:58.305Z,24.25
2023-05-09T06:01:25.708Z,23.90
2023-05-09T06:03:55.813Z,23.10
2023-05-09T06:06:27.147Z,22.40
2023-05-09T06:08:55.649Z,24.17
2023-05-09T06:11:23.928Z,23.50
2023-05-09T06:13:51.099Z,23.55
2023-05-09T06:16:20.307Z,22.88
2023-05-09T06:18:53.319Z,23.73
2023-05-09T06:21:22.160Z,23.75
2023-05-09T06:24:05.885Z,24.63
2023-05-09T06:26:36.786Z,24.40
2023-05-09T06:29:06.296Z,25.48
2023-05-09T06:31:38.561Z,26.50
2023-05-09T06:34:06.234Z,26.65
2023-05-09T06:36:34.605Z,27.48
2023-05-09T06:39:01.825Z,27.45
2023-05-09T06:41:28.965Z,27.38
2023-05-09T06:43:56.219Z,27.83
2023-05-09T06:46:23.420Z,28.83
2023-05-09T06:48:50.576Z,30.60
2023-05-09T06:51:17.738Z,30.15
2023-05-09T06:53:44.807Z,31.58
2023-05-09T06:56:12.524Z,32.22
2023-05-09T06:58:39.911Z,32.85
2023-05-09T07:01:07.082Z,33.10
2023-05-09T07:03:34.283Z,35.13
2023-05-09T07:06:01.449Z,36.15
2023-05-09T07:08:28.524Z,36.58
2023-05-09T07:10:55.752Z,39.28
2023-05-09T07:13:23.018Z,35.92
2023-05-09T07:15:50.526Z,35.30
2023-05-09T07:18:17.696Z,35.17
2023-05-09T07:20:44.816Z,35.65
2023-05-09T07:23:11.832Z,34.03
2023-05-09T07:25:38.915Z,35.28
2023-05-09T07:28:06.509Z,35.60
2023-05-09T07:30:33.700Z,34.33
2023-05-09T07:33:01.540Z,35.00
2023-05-09T07:35:29.051Z,34.30
2023-05-09T07:37:56.250Z,35.72
2023-05-09T07:40:23.339Z,35.75
2023-05-09T07:42:51.564Z,35.85
2023-05-09T07:45:19.937Z,36.00
2023-05-09T07:47:48.462Z,36.72
2023-05-09T07:50:16.973Z,34.67
2023-05-09T07:52:44.181Z,36.00
2023-05-09T07:55:12.388Z,34.53
2023-05-09T07:57:40.052Z,34.28
2023-05-09T08:00:08.918Z,34.38
2023-05-09T08:02:40.630Z,34.33
2023-05-09T08:05:11.339Z,37.50
2023-05-09T08:07:38.700Z,35.90
2023-05-09T08:10:06.856Z,38.35
2023-05-09T08:12:33.984Z,36.85
2023-05-09T08:15:01.057Z,37.97
2023-05-09T08:17:28.189Z,39.78
2023-05-09T08:19:55.643Z,38.80
2023-05-09T08:22:22.928Z,38.25
2023-05-09T08:24:50.146Z,38.10
2023-05-09T08:27:17.281Z,37.95
2023-05-09T08:29:44.363Z,37.55
2023-05-09T08:32:11.613Z,38.30
2023-05-09T08:34:38.794Z,38.63
2023-05-09T08:37:05.958Z,37.65
2023-05-09T08:39:34.998Z,37.97
2023-05-09T08:42:03.439Z,37.63
2023-05-09T08:44:32.255Z,36.65
2023-05-09T08:47:02.178Z,36.30
2023-05-09T08:49:30.045Z,34.50
2023-05-09T08:51:57.494Z,34.45
2023-05-09T08:54:25.199Z,33.85
2023-05-09T08:56:52.412Z,33.13
2023-05-09T08:59:19.786Z,33.30
2023-05-09T09:01:47.198Z,31.55
2023-05-09T09:04:14.473Z,31.10
2023-05-09T09:06:42.798Z,31.27
2023-05-09T09:09:11.862Z,31.40
2023-05-09T09:11:42.228Z,30.48
2023-05-09T09:14:20.304Z,29.95
2023-05-09T09:16:49.122Z,29.80
2023-05-09T09:19:18.130Z,29.10
2023-05-09T09:21:51.075Z,28.73
2023-05-09T09:24:24.919Z,27.30
2023-05-09T09:26:52.538Z,28.23
2023-05-09T09:29:21.097Z,28.65
2023-05-09T09:31:53.421Z,28.80
2023-05-09T09:34:23.251Z,29.42
2023-05-09T09:36:50.978Z,29.10
2023-05-09T09:39:18.296Z,30.17
2023-05-09T09:41:45.917Z,29.38
2023-05-09T09:44:21.983Z,28.52
2023-05-09T09:46:52.669Z,28.85
2023-05-09T09:49:25.172Z,29.00
2023-05-09T09:51:57.788Z,27.65
2023-05-09T09:54:28.229Z,29.67
2023-05-09T09:56:56.515Z,27.88
2023-05-09T09:59:26.524Z,28.13
2023-05-09T10:02:07.442Z,28.15
2023-05-09T10:04:38.818Z,28.05
2023-05-09T10:07:12.866Z,27.42
2023-05-09T10:09:43.795Z,28.08
2023-05-09T10:12:12.133Z,25.52
2023-05-09T10:14:42.357Z,25.30
2023-05-09T10:17:13.197Z,24.02
2023-05-09T10:19:45.685Z,24.50
2023-05-09T10:22:16.546Z,24.27
2023-05-09T10:25:03.971Z,25.25
2023-05-09T10:27:35.663Z,24.15
2023-05-09T10:30:07.635Z,22.80
2023-05-09T10:32:50.056Z,23.13
2023-05-09T10:35:19.843Z,22.80
2023-05-09T10:37:47.784Z,21.23
2023-05-09T10:40:15.747Z,20.92
2023-05-09T10:42:44.198Z,19.55
2023-05-09T10:45:12.855Z,21.40
2023-05-09T10:47:41.879Z,21.52
2023-05-09T10:50:13.023Z,22.80
2023-05-09T10:53:04.878Z,23.00
2023-05-09T10:55:56.524Z,23.23
2023-05-09T10:58:26.607Z,23.60
2023-05-09T11:00:57.562Z,22.67
2023-05-09T11:03:29.570Z,22.55
2023-05-09T11:05:58.925Z,23.02
2023-05-09T11:08:29.088Z,21.80
2023-05-09T11:11:02.328Z,21.42
2023-05-09T11:13:38.456Z,21.60
2023-05-09T11:16:10.091Z,19.70
2023-05-09T11:18:52.820Z,16.60
2023-05-09T11:21:20.929Z,15.30
2023-05-09T11:23:48.889Z,16.77
2023-05-09T11:26:16.747Z,15.88
2023-05-09T11:28:53.988Z,15.82
2023-05-09T11:31:21.304Z,14.85
2023-05-09T11:33:55.202Z,14.73
2023-05-09T11:36:31.953Z,14.18
2023-05-09T11:39:05.301Z,13.80
2023-05-09T11:41:46.297Z,13.55
2023-05-09T11:44:19.429Z,13.25
2023-05-09T11:46:48.700Z,13.13
2023-05-09T11:49:17.209Z,11.57
2023-05-09T11:51:44.404Z,12.02
2023-05-09T11:54:13.672Z,10.95
2023-05-09T11:56:42.146Z,10.85
2023-05-09T11:59:10.551Z,10.48
2023-05-09T12:01:37.879Z,9.80
2023-05-09T12:04:07.880Z,9.70
2023-05-09T12:06:35.370Z,8.40
2023-05-09T12:09:02.575Z,9.95
2023-05-09T12:11:32.348Z,9.98
2023-05-09T12:13:59.771Z,9.45
2023-05-09T12:16:26.959Z,9.75
2023-05-09T12:18:54.773Z,9.57
2023-05-09T12:21:22.095Z,9.63
2023-05-09T12:23:51.674Z,9.25
2023-05-09T12:26:22.764Z,9.02
2023-05-09T12:28:50.797Z,9.95
2023-05-09T12:31:18.611Z,10.55
2023-05-09T12:33:46.107Z,9.80
2023-05-09T12:36:14.446Z,10.15
2023-05-09T12:38:52.805Z,9.48
2023-05-09T12:41:35.102Z,9.32
2023-05-09T12:44:04.594Z,9.45
2023-05-09T12:46:32.017Z,9.90
2023-05-09T12:48:59.608Z,9.75
2023-05-09T12:51:26.733Z,10.13
2023-05-09T12:53:53.979Z,9.82
2023-05-09T12:56:25.497Z,10.13
2023-05-09T12:58:54.965Z,11.18
2023-05-09T13:01:27.425Z,11.43
2023-05-09T13:04:04.377Z,11.65
2023-05-09T13:06:31.590Z,13.35
2023-05-09T13:09:05.837Z,15.40
2023-05-09T13:11:33.210Z,15.93
2023-05-09T13:14:02.330Z,16.63
2023-05-09T13:16:29.585Z,16.95
2023-05-09T13:18:56.781Z,18.10
2023-05-09T13:21:24.031Z,18.23
2023-05-09T13:23:52.066Z,19.17
2023-05-09T13:26:19.621Z,17.98
2023-05-09T13:28:47.045Z,18.80
2023-05-09T13:31:15.513Z,18.50
2023-05-09T13:33:42.576Z,18.80
2023-05-09T13:36:09.894Z,18.45
2023-05-09T13:38:40.463Z,19.30
2023-05-09T13:41:08.222Z,19.92
2023-05-09T13:43:37.266Z,19.15
2023-05-09T13:46:04.530Z,18.95
2023-05-09T13:48:31.821Z,19.25
2023-05-09T13:51:00.422Z,19.85
2023-05-09T13:53:27.682Z,19.60
2023-05-09T13:55:54.951Z,18.83
2023-05-09T13:58:22.679Z,18.98
2023-05-09T14:00:50.257Z,18.73
2023-05-09T14:03:17.720Z,18.52
2023-05-09T14:05:44.952Z,18.40
2023-05-09T14:08:12.311Z,18.88
2023-05-09T14:10:39.582Z,18.83
2023-05-09T14:13:08.413Z,18.30
2023-05-09T14:15:36.039Z,19.00
2023-05-09T14:18:03.329Z,17.92
2023-05-09T14:20:30.634Z,18.30
2023-05-09T14:23:00.650Z,18.85
2023-05-09T14:25:27.876Z,19.10
2023-05-09T14:27:54.983Z,18.17
2023-05-09T14:30:23.572Z,18.15
2023-05-09T14:32:51.267Z,18.52
2023-05-09T14:35:18.569Z,19.05
2023-05-09T14:37:46.153Z,17.65
2023-05-09T14:40:13.589Z,16.85
2023-05-09T14:42:41.157Z,15.38
2023-05-09T14:45:12.011Z,14.38
2023-05-09T14:47:39.327Z,12.48
2023-05-09T14:50:10.116Z,12.20
2023-05-09T14:52:37.232Z,11.27
2023-05-09T14:55:06.187Z,10.98
2023-05-09T14:57:33.746Z,10.65
2023-05-09T15:00:12.492Z,11.85
2023-05-09T15:02:47.206Z,12.63
2023-05-09T15:05:14.674Z,12.30
2023-05-09T15:07:41.815Z,12.18
2023-05-09T15:10:09.684Z,12.57
2023-05-09T15:12:36.960Z,11.98
2023-05-09T15:15:19.363Z,11.93
2023-05-09T15:17:47.129Z,10.13
2023-05-09T15:20:18.263Z,10.50
2023-05-09T15:22:50.290Z,9.52
2023-05-09T15:25:17.991Z,9.32
2023-05-09T15:27:45.114Z,9.75
2023-05-09T15:30:12.792Z,9.07
2023-05-09T15:32:43.455Z,9.27
2023-05-09T15:35:10.928Z,8.50
2023-05-09T15:37:38.457Z,8.10
2023-05-09T15:40:07.215Z,7.20
2023-05-09T15:42:35.079Z,7.80
2023-05-09T15:45:03.374Z,8.00
2023-05-09T15:47:31.021Z,7.65
2023-05-09T15:49:58.189Z,6.85
2023-05-09T15:52:25.860Z,6.45
2023-05-09T15:54:55.131Z,6.50
2023-05-09T15:57:22.880Z,6.20
2023-05-09T15:59:50.040Z,6.72
2023-05-09T16:02:17.367Z,5.85
2023-05-09T16:04:44.616Z,6.00
2023-05-09T16:07:11.738Z,5.72
2023-05-09T16:09:38.741Z,6.00
2023-05-09T16:12:06.050Z,5.93
2023-05-09T16:14:33.190Z,5.45
2023-05-09T16:17:01.072Z,4.90
2023-05-09T16:19:28.205Z,4.80
2023-05-09T16:21:55.402Z,4.10
2023-05-09T16:24:22.733Z,4.18
2023-05-09T16:26:49.789Z,4.18
2023-05-09T16:29:16.921Z,4.50
2023-05-09T16:31:44.958Z,4.40
2023-05-09T16:34:12.112Z,4.43
2023-05-09T16:36:39.515Z,4.90
2023-05-09T16:39:06.432Z,4.53
2023-05-09T16:41:33.417Z,4.70
2023-05-09T16:44:00.463Z,5.05
2023-05-09T16:46:27.437Z,5.10
2023-05-09T16:48:55.217Z,4.60
2023-05-09T16:51:22.460Z,4.28
2023-05-09T16:53:49.570Z,3.60
2023-05-09T16:56:16.712Z,3.40
2023-05-09T16:58:44.868Z,3.83
2023-05-09T17:01:12.060Z,3.67
2023-05-09T17:03:39.995Z,3.85
2023-05-09T17:06:07.540Z,3.80
2023-05-09T17:08:34.819Z,3.45
2023-05-09T17:11:01.840Z,3.55
2023-05-09T17:13:28.918Z,3.10
2023-05-09T17:15:56.993Z,3.10
2023-05-09T17:18:36.026Z,3.10
2023-05-09T17:21:03.805Z,3.38
2023-05-09T17:23:30.810Z,3.40
2023-05-09T17:25:57.891Z,3.40
2023-05-09T17:28:25.124Z,3.38
2023-05-09T17:30:52.087Z,3.63
2023-05-09T17:33:19.323Z,3.45
2023-05-09T17:35:49.425Z,3.70
2023-05-09T17:38:17.377Z,3.40
2023-05-09T17:40:44.908Z,3.03
2023-05-09T17:43:13.337Z,3.92
2023-05-09T17:45:40.536Z,3.83
2023-05-09T17:48:08.104Z,3.90
2023-05-09T17:50:35.168Z,3.70
2023-05-09T17:53:02.491Z,3.58
2023-05-09T17:55:29.706Z,3.65
2023-05-09T17:57:57.001Z,3.90
2023-05-09T18:00:24.212Z,3.80
2023-05-09T18:02:51.502Z,4.35
2023-05-09T18:05:18.798Z,4.28
2023-05-09T18:07:45.853Z,4.30
2023-05-09T18:10:13.106Z,4.07
2023-05-09T18:12:40.811Z,4.32
2023-05-09T18:15:08.604Z,4.30
2023-05-09T18:17:35.748Z,4.15
2023-05-09T18:20:05.265Z,4.10
2023-05-09T18:22:32.670Z,4.65
2023-05-09T18:25:01.299Z,3.97
2023-05-09T18:27:28.326Z,4.20
2023-05-09T18:29:55.703Z,4.63
2023-05-09T18:32:23.112Z,3.83
2023-05-09T18:34:50.453Z,4.50
2023-05-09T18:37:17.719Z,4.90
2023-05-09T18:39:44.856Z,4.60
2023-05-09T18:42:13.301Z,4.57
2023-05-09T18:44:41.686Z,4.90
2023-05-09T18:47:08.804Z,4.55
2023-05-09T18:49:36.169Z,4.68
2023-05-09T18:52:03.466Z,4.13
2023-05-09T18:54:30.744Z,4.05
2023-05-09T18:56:58.024Z,4.40
2023-05-09T18:59:25.241Z,4.50
2023-05-09T19:01:53.112Z,4.45
2023-05-09T19:04:21.593Z,4.43
2023-05-09T19:06:49.004Z,4.07
2023-05-09T19:09:16.659Z,4.35
2023-05-09T19:11:45.192Z,4.32
2023-05-09T19:14:12.431Z,5.10
2023-05-09T19:16:39.772Z,4.60
2023-05-09T19:19:06.990Z,4.72
2023-05-09T19:21:35.548Z,4.93
2023-05-09T19:24:04.680Z,4.80
2023-05-09T19:26:32.004Z,5.20
2023-05-09T19:29:00.630Z,5.35
2023-05-09T19:31:27.973Z,4.38
2023-05-09T19:33:55.107Z,4.65
2023-05-09T19:36:22.126Z,4.68
2023-05-09T19:38:49.221Z,4.78
2023-05-09T19:41:16.717Z,4.82
2023-05-09T19:43:43.959Z,4.53
2023-05-09T19:46:11.218Z,4.30
2023-05-09T19:48:38.332Z,4.60
2023-05-09T19:51:05.693Z,4.63
2023-05-09T19:53:32.796Z,4.40
2023-05-09T19:55:59.791Z,4.47
2023-05-09T19:58:27.651Z,4.57
2023-05-09T20:00:54.782Z,4.57
2023-05-09T20:03:21.832Z,4.40
2023-05-09T20:05:49.017Z,4.90
2023-05-09T20:08:16.079Z,4.95
2023-05-09T20:10:43.434Z,5.25
2023-05-09T20:13:10.649Z,5.15
2023-05-09T20:15:37.900Z,5.10
2023-05-09T20:18:07.112Z,5.20
2023-05-09T20:20:34.685Z,5.70
2023-05-09T20:23:02.181Z,5.60
2023-05-09T20:25:29.483Z,5.72
2023-05-09T20:27:56.651Z,6.63
2023-05-09T20:30:23.915Z,6.50
2023-05-09T20:32:51.650Z,6.50
2023-05-09T20:35:19.265Z,6.70
2023-05-09T20:37:46.733Z,6.60
2023-05-09T20:40:14.369Z,7.03
2023-05-09T20:42:41.699Z,7.70
2023-05-09T20:45:09.688Z,7.63
2023-05-09T20:47:36.856Z,7.82
2023-05-09T20:50:04.484Z,7.82
2023-05-09T20:52:31.706Z,8.25
2023-05-09T20:54:59.268Z,7.88
2023-05-09T20:57:26.473Z,8.43
2023-05-09T20:59:53.700Z,8.85
2023-05-09T21:02:20.907Z,8.93
2023-05-09T21:04:48.205Z,8.98
2023-05-09T21:07:19.092Z,9.80
2023-05-09T21:09:47.477Z,9.30
2023-05-09T21:12:14.881Z,9.35
2023-05-09T21:14:41.973Z,10.50
2023-05-09T21:17:09.574Z,9.98
2023-05-09T21:19:36.874Z,10.18
2023-05-09T21:22:04.143Z,10.35
2023-05-09T21:24:31.355Z,9.90
2023-05-09T21:26:58.401Z,10.05
2023-05-09T21:29:25.448Z,10.00
2023-05-09T21:31:52.994Z,10.70
2023-05-09T21:34:20.334Z,10.88
2023-05-09T21:36:47.367Z,11.05
2023-05-09T21:39:14.456Z,11.25
2023-05-09T21:41:43.276Z,11.00
2023-05-09T21:44:12.054Z,11.30
2023-05-09T21:46:39.400Z,11.57
2023-05-09T21:49:06.522Z,11.70
2023-05-09T21:51:34.926Z,12.00
2023-05-09T21:54:02.239Z,11.73
2023-05-09T21:56:29.678Z,11.73
2023-05-09T21:58:56.710Z,12.07
2023-05-09T22:01:23.806Z,12.50
2023-05-09T22:03:51.564Z,12.00
2023-05-09T22:06:18.650Z,12.25
2023-05-09T22:08:47.689Z,13.60
2023-05-09T22:11:15.271Z,12.68
2023-05-09T22:13:43.491Z,13.00
2023-05-09T22:16:10.811Z,13.52
2023-05-09T22:18:37.789Z,12.68
2023-05-09T22:21:05.200Z,13.48
2023-05-09T22:23:32.271Z,13.75
2023-05-09T22:25:59.331Z,13.63
2023-05-09T22:28:27.753Z,13.65
2023-05-09T22:30:54.897Z,14.05
2023-05-09T22:33:22.167Z,13.52
2023-05-09T22:35:49.179Z,13.50
2023-05-09T22:38:16.305Z,14.55
2023-05-09T22:40:44.032Z,13.95
2023-05-09T22:43:11.638Z,14.38
2023-05-09T22:45:38.786Z,14.95
2023-05-09T22:48:06.518Z,15.20
2023-05-09T22:50:35.053Z,12.65
2023-05-09T22:53:02.245Z,12.15
2023-05-09T22:55:29.475Z,10.77
2023-05-09T22:57:56.531Z,9.43
2023-05-09T23:00:23.520Z,9.23
2023-05-09T23:02:50.746Z,9.77
2023-05-09T23:05:18.004Z,9.80
2023-05-09T23:07:45.160Z,10.45
2023-05-09T23:10:12.245Z,9.40
2023-05-09T23:12:39.283Z,9.50
2023-05-09T23:15:07.529Z,8.85
2023-05-09T23:17:34.926Z,7.13
2023-05-09T23:20:04.155Z,7.85
2023-05-09T23:22:31.608Z,8.10
2023-05-09T23:25:00.789Z,8.43
2023-05-09T23:27:28.387Z,8.50
2023-05-09T23:29:55.774Z,9.27
2023-05-09T23:32:22.976Z,8.88
2023-05-09T23:34:50.104Z,9.70
2023-05-09T23:37:17.361Z,9.43
2023-05-09T23:39:44.488Z,9.82
2023-05-09T23:42:12.373Z,10.25
2023-05-09T23:44:39.462Z,10.05
2023-05-09T23:47:06.864Z,11.02
2023-05-09T23:49:34.021Z,11.40
2023-05-09T23:52:01.299Z,11.70
2023-05-09T23:54:28.781Z,12.02
2023-05-09T23:56:59.118Z,11.18
2023-05-09T23:59:26.200Z,12.70
